Hampton Falls, New Hampshire
Current Conditions -  °F | °C
As of 4:58 PM on Monday 24 Nov 2014 (Local Time) from KPSM Reporting Station
Overcast Overcast  
Wind Chill: 18°   Ceiling: 2200
Heat Index: 18°   Visibility: 10mi
Dew Point: 15°   Wind: 12mph
Humidity: 83%   Direction: 190°S
Pressure: 29.52"   Gusts: 22mph
Location:  42.92°N, 70.86°W
Report Text: KPSM 242158Z 19010G19KT 10SM OVC022 18/15 A2952 RMK AO2A SLP000 T01800150
Loading
Personal Weather Stations






























Interactive Weather Map New forecast layout! Learn more

10-Day Weather Forecast

Advertisements
Track Severe Weather on mobile